sensor_id;sensor_type;location;lat;lon;timestamp;P1;durP1;ratioP1;P2;durP2;ratioP2
64210;SDS011;50528;48.514;14.394;2022-11-18T00:00:53;7.60;;;5.40;;
64210;SDS011;50528;48.514;14.394;2022-11-18T00:01:57;8.00;;;5.60;;
64210;SDS011;50528;48.514;14.394;2022-11-18T00:03:00;7.90;;;5.50;;
64210;SDS011;50528;48.514;14.394;2022-11-18T00:04:04;6.90;;;5.50;;
64210;SDS011;50528;48.514;14.394;2022-11-18T00:05:07;8.50;;;5.70;;
64210;SDS011;50528;48.514;14.394;2022-11-18T00:06:11;8.30;;;6.30;;
64210;SDS011;50528;48.514;14.394;2022-11-18T00:07:19;8.80;;;6.20;;
64210;SDS011;50528;48.514;14.394;2022-11-18T00:08:23;8.20;;;6.40;;
64210;SDS011;50528;48.514;14.394;2022-11-18T00:09:27;8.80;;;6.30;;
64210;SDS011;50528;48.514;14.394;2022-11-18T00:10:31;8.20;;;6.00;;
64210;SDS011;50528;48.514;14.394;2022-11-18T00:11:34;8.80;;;6.70;;
64210;SDS011;50528;48.514;14.394;2022-11-18T00:12:56;8.30;;;5.40;;
64210;SDS011;50528;48.514;14.394;2022-11-18T00:14:22;9.70;;;5.80;;
64210;SDS011;50528;48.514;14.394;2022-11-18T00:15:29;9.20;;;5.70;;
64210;SDS011;50528;48.514;14.394;2022-11-18T00:16:33;8.30;;;5.60;;
64210;SDS011;50528;48.514;14.394;2022-11-18T00:17:37;7.30;;;5.10;;
64210;SDS011;50528;48.514;14.394;2022-11-18T00:18:40;8.40;;;5.80;;
64210;SDS011;50528;48.514;14.394;2022-11-18T00:19:44;7.80;;;5.30;;
64210;SDS011;50528;48.514;14.394;2022-11-18T00:20:47;9.00;;;5.20;;
64210;SDS011;50528;48.514;14.394;2022-11-18T00:21:53;8.00;;;5.50;;
64210;SDS011;50528;48.514;14.394;2022-11-18T00:22:56;9.30;;;5.50;;
64210;SDS011;50528;48.514;14.394;2022-11-18T00:24:00;7.00;;;4.70;;
64210;SDS011;50528;48.514;14.394;2022-11-18T00:25:04;7.10;;;5.20;;
64210;SDS011;50528;48.514;14.394;2022-11-18T00:26:08;6.90;;;5.10;;
64210;SDS011;50528;48.514;14.394;2022-11-18T00:27:16;8.30;;;5.30;;
64210;SDS011;50528;48.514;14.394;2022-11-18T00:28:19;7.00;;;4.90;;
64210;SDS011;50528;48.514;14.394;2022-11-18T00:29:23;6.60;;;5.00;;
64210;SDS011;50528;48.514;14.394;2022-11-18T00:30:30;6.30;;;4.80;;
64210;SDS011;50528;48.514;14.394;2022-11-18T00:31:34;8.60;;;5.00;;
64210;SDS011;50528;48.514;14.394;2022-11-18T00:32:43;6.90;;;4.90;;
64210;SDS011;50528;48.514;14.394;2022-11-18T00:33:47;6.80;;;5.10;;
64210;SDS011;50528;48.514;14.394;2022-11-18T00:34:50;7.60;;;5.70;;
64210;SDS011;50528;48.514;14.394;2022-11-18T00:35:53;10.20;;;6.20;;
64210;SDS011;50528;48.514;14.394;2022-11-18T00:36:57;10.60;;;6.40;;
64210;SDS011;50528;48.514;14.394;2022-11-18T00:38:01;9.00;;;6.50;;
64210;SDS011;50528;48.514;14.394;2022-11-18T00:39:04;9.40;;;6.30;;
64210;SDS011;50528;48.514;14.394;2022-11-18T00:40:08;8.70;;;6.40;;
64210;SDS011;50528;48.514;14.394;2022-11-18T00:41:13;8.00;;;6.10;;
64210;SDS011;50528;48.514;14.394;2022-11-18T00:42:17;8.20;;;5.80;;
64210;SDS011;50528;48.514;14.394;2022-11-18T00:43:39;6.90;;;5.60;;
64210;SDS011;50528;48.514;14.394;2022-11-18T00:44:43;8.40;;;5.60;;
64210;SDS011;50528;48.514;14.394;2022-11-18T00:45:47;7.50;;;5.70;;
64210;SDS011;50528;48.514;14.394;2022-11-18T00:46:50;8.10;;;5.50;;
64210;SDS011;50528;48.514;14.394;2022-11-18T00:47:54;8.00;;;5.50;;
64210;SDS011;50528;48.514;14.394;2022-11-18T00:48:57;7.60;;;5.40;;
64210;SDS011;50528;48.514;14.394;2022-11-18T00:50:00;9.70;;;5.90;;
64210;SDS011;50528;48.514;14.394;2022-11-18T00:52:10;7.50;;;5.10;;
64210;SDS011;50528;48.514;14.394;2022-11-18T00:53:14;8.10;;;5.80;;
64210;SDS011;50528;48.514;14.394;2022-11-18T00:54:26;7.10;;;4.70;;
64210;SDS011;50528;48.514;14.394;2022-11-18T00:55:30;8.50;;;5.20;;
64210;SDS011;50528;48.514;14.394;2022-11-18T00:56:35;6.80;;;4.70;;
64210;SDS011;50528;48.514;14.394;2022-11-18T00:57:38;8.20;;;4.80;;
64210;SDS011;50528;48.514;14.394;2022-11-18T00:58:43;6.60;;;4.80;;
64210;SDS011;50528;48.514;14.394;2022-11-18T00:59:47;7.30;;;4.60;;
64210;SDS011;50528;48.514;14.394;2022-11-18T01:00:51;6.90;;;5.10;;
64210;SDS011;50528;48.514;14.394;2022-11-18T01:01:55;7.20;;;5.20;;
64210;SDS011;50528;48.514;14.394;2022-11-18T01:02:58;6.30;;;4.70;;
64210;SDS011;50528;48.514;14.394;2022-11-18T01:04:02;6.60;;;4.90;;
64210;SDS011;50528;48.514;14.394;2022-11-18T01:05:06;8.00;;;5.50;;
64210;SDS011;50528;48.514;14.394;2022-11-18T01:06:11;9.10;;;5.60;;
64210;SDS011;50528;48.514;14.394;2022-11-18T01:07:14;8.60;;;5.40;;
64210;SDS011;50528;48.514;14.394;2022-11-18T01:08:18;7.10;;;5.40;;
64210;SDS011;50528;48.514;14.394;2022-11-18T01:09:22;7.70;;;5.60;;
64210;SDS011;50528;48.514;14.394;2022-11-18T01:10:27;7.80;;;5.30;;
64210;SDS011;50528;48.514;14.394;2022-11-18T01:11:30;7.90;;;5.30;;
64210;SDS011;50528;48.514;14.394;2022-11-18T01:12:53;6.90;;;5.10;;
64210;SDS011;50528;48.514;14.394;2022-11-18T01:14:15;8.60;;;4.80;;
64210;SDS011;50528;48.514;14.394;2022-11-18T01:15:18;6.80;;;5.30;;
64210;SDS011;50528;48.514;14.394;2022-11-18T01:16:22;7.30;;;4.90;;
64210;SDS011;50528;48.514;14.394;2022-11-18T01:17:30;6.20;;;4.80;;
64210;SDS011;50528;48.514;14.394;2022-11-18T01:18:35;6.80;;;4.70;;
64210;SDS011;50528;48.514;14.394;2022-11-18T01:19:39;6.80;;;4.80;;
64210;SDS011;50528;48.514;14.394;2022-11-18T01:20:43;7.10;;;4.80;;
64210;SDS011;50528;48.514;14.394;2022-11-18T01:21:46;7.00;;;4.70;;
64210;SDS011;50528;48.514;14.394;2022-11-18T01:22:50;7.90;;;5.10;;
64210;SDS011;50528;48.514;14.394;2022-11-18T01:23:54;6.90;;;4.50;;
64210;SDS011;50528;48.514;14.394;2022-11-18T01:24:57;7.80;;;5.40;;
64210;SDS011;50528;48.514;14.394;2022-11-18T01:26:03;7.30;;;5.00;;
64210;SDS011;50528;48.514;14.394;2022-11-18T01:27:08;7.50;;;4.70;;
64210;SDS011;50528;48.514;14.394;2022-11-18T01:28:12;6.70;;;4.40;;
64210;SDS011;50528;48.514;14.394;2022-11-18T01:29:23;6.80;;;4.40;;
64210;SDS011;50528;48.514;14.394;2022-11-18T01:30:26;6.70;;;4.40;;
64210;SDS011;50528;48.514;14.394;2022-11-18T01:31:30;6.40;;;4.40;;
64210;SDS011;50528;48.514;14.394;2022-11-18T01:32:33;6.20;;;4.40;;
64210;SDS011;50528;48.514;14.394;2022-11-18T01:33:37;6.30;;;4.40;;
64210;SDS011;50528;48.514;14.394;2022-11-18T01:34:40;6.80;;;4.80;;
64210;SDS011;50528;48.514;14.394;2022-11-18T01:35:44;8.30;;;4.60;;
64210;SDS011;50528;48.514;14.394;2022-11-18T01:36:47;6.20;;;4.30;;
64210;SDS011;50528;48.514;14.394;2022-11-18T01:37:50;6.50;;;4.00;;
64210;SDS011;50528;48.514;14.394;2022-11-18T01:38:54;5.80;;;4.30;;
64210;SDS011;50528;48.514;14.394;2022-11-18T01:39:58;6.00;;;4.20;;
64210;SDS011;50528;48.514;14.394;2022-11-18T01:41:01;6.20;;;4.50;;
64210;SDS011;50528;48.514;14.394;2022-11-18T01:42:05;6.30;;;4.30;;
64210;SDS011;50528;48.514;14.394;2022-11-18T01:43:18;6.10;;;4.60;;
64210;SDS011;50528;48.514;14.394;2022-11-18T01:45:54;6.60;;;4.00;;
64210;SDS011;50528;48.514;14.394;2022-11-18T01:46:59;5.90;;;4.00;;
64210;SDS011;50528;48.514;14.394;2022-11-18T01:49:18;5.30;;;3.90;;
64210;SDS011;50528;48.514;14.394;2022-11-18T01:50:23;5.90;;;3.90;;
64210;SDS011;50528;48.514;14.394;2022-11-18T01:51:36;6.70;;;4.60;;
64210;SDS011;50528;48.514;14.394;2022-11-18T01:52:46;5.60;;;3.90;;
64210;SDS011;50528;48.514;14.394;2022-11-18T01:53:56;6.20;;;4.30;;
64210;SDS011;50528;48.514;14.394;2022-11-18T01:55:05;5.60;;;3.90;;
64210;SDS011;50528;48.514;14.394;2022-11-18T01:56:14;6.60;;;4.20;;
64210;SDS011;50528;48.514;14.394;2022-11-18T01:57:20;5.70;;;4.10;;
64210;SDS011;50528;48.514;14.394;2022-11-18T01:58:34;6.70;;;4.00;;
64210;SDS011;50528;48.514;14.394;2022-11-18T01:59:49;5.30;;;3.70;;
64210;SDS011;50528;48.514;14.394;2022-11-18T02:00:57;5.60;;;4.10;;
64210;SDS011;50528;48.514;14.394;2022-11-18T02:02:03;5.80;;;3.90;;
64210;SDS011;50528;48.514;14.394;2022-11-18T02:03:11;6.10;;;4.10;;
64210;SDS011;50528;48.514;14.394;2022-11-18T02:04:15;8.10;;;4.50;;
64210;SDS011;50528;48.514;14.394;2022-11-18T02:05:19;12.70;;;4.10;;
64210;SDS011;50528;48.514;14.394;2022-11-18T02:06:23;6.40;;;3.80;;
64210;SDS011;50528;48.514;14.394;2022-11-18T02:07:31;68.10;;;4.30;;
64210;SDS011;50528;48.514;14.394;2022-11-18T02:08:37;10.60;;;4.30;;
64210;SDS011;50528;48.514;14.394;2022-11-18T02:09:42;6.90;;;4.20;;
64210;SDS011;50528;48.514;14.394;2022-11-18T02:10:49;6.90;;;4.10;;
64210;SDS011;50528;48.514;14.394;2022-11-18T02:11:52;10.00;;;4.40;;
64210;SDS011;50528;48.514;14.394;2022-11-18T02:12:56;7.40;;;4.20;;
64210;SDS011;50528;48.514;14.394;2022-11-18T02:14:01;6.20;;;4.30;;
64210;SDS011;50528;48.514;14.394;2022-11-18T02:15:08;5.50;;;3.90;;
64210;SDS011;50528;48.514;14.394;2022-11-18T02:16:14;5.30;;;3.80;;
64210;SDS011;50528;48.514;14.394;2022-11-18T02:18:54;6.50;;;3.60;;
64210;SDS011;50528;48.514;14.394;2022-11-18T02:20:10;5.20;;;3.70;;
64210;SDS011;50528;48.514;14.394;2022-11-18T02:21:20;6.00;;;3.80;;
64210;SDS011;50528;48.514;14.394;2022-11-18T02:22:44;7.40;;;4.40;;
64210;SDS011;50528;48.514;14.394;2022-11-18T02:26:28;7.50;;;4.60;;
64210;SDS011;50528;48.514;14.394;2022-11-18T02:29:19;8.20;;;4.50;;
64210;SDS011;50528;48.514;14.394;2022-11-18T02:32:21;6.10;;;3.90;;
64210;SDS011;50528;48.514;14.394;2022-11-18T02:36:15;7.50;;;4.30;;
64210;SDS011;50528;48.514;14.394;2022-11-18T02:38:33;6.90;;;4.80;;
64210;SDS011;50528;48.514;14.394;2022-11-18T02:39:46;9.40;;;5.10;;
64210;SDS011;50528;48.514;14.394;2022-11-18T02:41:04;8.50;;;4.70;;
64210;SDS011;50528;48.514;14.394;2022-11-18T02:42:11;7.10;;;3.90;;
64210;SDS011;50528;48.514;14.394;2022-11-18T02:43:37;8.40;;;5.10;;
64210;SDS011;50528;48.514;14.394;2022-11-18T02:44:46;7.20;;;5.10;;
64210;SDS011;50528;48.514;14.394;2022-11-18T02:45:55;8.20;;;5.00;;
64210;SDS011;50528;48.514;14.394;2022-11-18T02:47:04;6.80;;;4.20;;
64210;SDS011;50528;48.514;14.394;2022-11-18T02:48:11;7.20;;;4.60;;
64210;SDS011;50528;48.514;14.394;2022-11-18T02:49:21;7.00;;;4.80;;
64210;SDS011;50528;48.514;14.394;2022-11-18T02:50:27;6.00;;;4.70;;
64210;SDS011;50528;48.514;14.394;2022-11-18T02:51:32;6.40;;;5.20;;
64210;SDS011;50528;48.514;14.394;2022-11-18T02:52:38;8.10;;;5.20;;
64210;SDS011;50528;48.514;14.394;2022-11-18T02:53:44;9.80;;;5.40;;
64210;SDS011;50528;48.514;14.394;2022-11-18T02:54:50;8.90;;;5.60;;
64210;SDS011;50528;48.514;14.394;2022-11-18T02:55:55;8.00;;;5.50;;
64210;SDS011;50528;48.514;14.394;2022-11-18T02:57:01;8.60;;;5.90;;
64210;SDS011;50528;48.514;14.394;2022-11-18T02:58:06;7.20;;;5.60;;
64210;SDS011;50528;48.514;14.394;2022-11-18T02:59:11;9.20;;;5.80;;
64210;SDS011;50528;48.514;14.394;2022-11-18T03:00:19;9.50;;;5.50;;
64210;SDS011;50528;48.514;14.394;2022-11-18T03:01:27;10.10;;;6.00;;
64210;SDS011;50528;48.514;14.394;2022-11-18T03:02:43;9.20;;;5.40;;
64210;SDS011;50528;48.514;14.394;2022-11-18T03:03:48;9.20;;;5.70;;
64210;SDS011;50528;48.514;14.394;2022-11-18T03:04:54;8.10;;;5.40;;
64210;SDS011;50528;48.514;14.394;2022-11-18T03:07:12;8.80;;;5.80;;
64210;SDS011;50528;48.514;14.394;2022-11-18T03:08:19;7.00;;;4.80;;
64210;SDS011;50528;48.514;14.394;2022-11-18T03:09:34;8.80;;;5.80;;
64210;SDS011;50528;48.514;14.394;2022-11-18T03:10:48;7.60;;;5.80;;
64210;SDS011;50528;48.514;14.394;2022-11-18T03:13:27;9.40;;;5.20;;
64210;SDS011;50528;48.514;14.394;2022-11-18T03:15:55;8.40;;;5.20;;
64210;SDS011;50528;48.514;14.394;2022-11-18T03:24:15;11.50;;;5.40;;
64210;SDS011;50528;48.514;14.394;2022-11-18T03:25:23;9.40;;;4.80;;
64210;SDS011;50528;48.514;14.394;2022-11-18T03:26:29;9.70;;;5.20;;
64210;SDS011;50528;48.514;14.394;2022-11-18T03:29:18;8.00;;;5.40;;
64210;SDS011;50528;48.514;14.394;2022-11-18T03:30:30;6.90;;;4.60;;
64210;SDS011;50528;48.514;14.394;2022-11-18T03:31:39;6.50;;;5.00;;
64210;SDS011;50528;48.514;14.394;2022-11-18T03:32:46;8.10;;;5.00;;
64210;SDS011;50528;48.514;14.394;2022-11-18T03:35:23;6.90;;;4.80;;
64210;SDS011;50528;48.514;14.394;2022-11-18T03:36:31;8.30;;;5.00;;
64210;SDS011;50528;48.514;14.394;2022-11-18T03:37:39;6.30;;;4.90;;
64210;SDS011;50528;48.514;14.394;2022-11-18T03:38:47;7.30;;;4.60;;
64210;SDS011;50528;48.514;14.394;2022-11-18T03:39:58;6.70;;;5.00;;
64210;SDS011;50528;48.514;14.394;2022-11-18T03:41:11;5.90;;;4.60;;
64210;SDS011;50528;48.514;14.394;2022-11-18T03:42:28;7.00;;;4.90;;
64210;SDS011;50528;48.514;14.394;2022-11-18T03:43:36;7.40;;;5.20;;
64210;SDS011;50528;48.514;14.394;2022-11-18T03:44:46;7.50;;;5.00;;
64210;SDS011;50528;48.514;14.394;2022-11-18T03:45:56;7.10;;;5.20;;
64210;SDS011;50528;48.514;14.394;2022-11-18T03:47:08;6.60;;;5.40;;
64210;SDS011;50528;48.514;14.394;2022-11-18T03:49:29;7.00;;;4.70;;
64210;SDS011;50528;48.514;14.394;2022-11-18T03:50:38;7.40;;;5.20;;
64210;SDS011;50528;48.514;14.394;2022-11-18T03:51:49;7.90;;;5.50;;
64210;SDS011;50528;48.514;14.394;2022-11-18T03:52:57;8.70;;;4.80;;
64210;SDS011;50528;48.514;14.394;2022-11-18T03:54:08;6.50;;;4.70;;
64210;SDS011;50528;48.514;14.394;2022-11-18T03:55:25;7.10;;;5.00;;
64210;SDS011;50528;48.514;14.394;2022-11-18T03:56:37;6.30;;;4.40;;
64210;SDS011;50528;48.514;14.394;2022-11-18T03:57:48;7.10;;;5.00;;
64210;SDS011;50528;48.514;14.394;2022-11-18T03:59:04;6.70;;;4.80;;
64210;SDS011;50528;48.514;14.394;2022-11-18T04:00:10;6.00;;;4.40;;
64210;SDS011;50528;48.514;14.394;2022-11-18T04:01:28;6.60;;;4.70;;
64210;SDS011;50528;48.514;14.394;2022-11-18T04:02:38;5.80;;;4.50;;
64210;SDS011;50528;48.514;14.394;2022-11-18T04:03:42;6.40;;;5.10;;
64210;SDS011;50528;48.514;14.394;2022-11-18T04:04:47;8.30;;;5.40;;
64210;SDS011;50528;48.514;14.394;2022-11-18T04:05:55;7.50;;;5.40;;
64210;SDS011;50528;48.514;14.394;2022-11-18T04:08:35;9.20;;;4.10;;
64210;SDS011;50528;48.514;14.394;2022-11-18T04:09:41;14.10;;;4.40;;
64210;SDS011;50528;48.514;14.394;2022-11-18T04:10:51;14.60;;;4.80;;
64210;SDS011;50528;48.514;14.394;2022-11-18T04:12:02;19.90;;;5.20;;
64210;SDS011;50528;48.514;14.394;2022-11-18T04:14:16;7.20;;;4.80;;
64210;SDS011;50528;48.514;14.394;2022-11-18T04:15:23;6.30;;;4.30;;
64210;SDS011;50528;48.514;14.394;2022-11-18T04:16:29;6.80;;;3.80;;
64210;SDS011;50528;48.514;14.394;2022-11-18T04:17:33;6.40;;;4.20;;
64210;SDS011;50528;48.514;14.394;2022-11-18T04:18:36;7.30;;;4.50;;
64210;SDS011;50528;48.514;14.394;2022-11-18T04:19:40;6.00;;;4.30;;
64210;SDS011;50528;48.514;14.394;2022-11-18T04:20:46;10.20;;;3.90;;
64210;SDS011;50528;48.514;14.394;2022-11-18T04:21:49;6.30;;;4.30;;
64210;SDS011;50528;48.514;14.394;2022-11-18T04:22:53;6.40;;;4.40;;
64210;SDS011;50528;48.514;14.394;2022-11-18T04:23:57;5.60;;;4.30;;
64210;SDS011;50528;48.514;14.394;2022-11-18T04:25:00;5.90;;;4.60;;
64210;SDS011;50528;48.514;14.394;2022-11-18T04:26:04;4.90;;;4.10;;
64210;SDS011;50528;48.514;14.394;2022-11-18T04:27:07;34.50;;;4.70;;
64210;SDS011;50528;48.514;14.394;2022-11-18T04:28:11;5.70;;;4.30;;
64210;SDS011;50528;48.514;14.394;2022-11-18T04:29:14;5.10;;;4.20;;
64210;SDS011;50528;48.514;14.394;2022-11-18T04:30:18;4.70;;;3.90;;
64210;SDS011;50528;48.514;14.394;2022-11-18T04:31:22;4.90;;;4.10;;
64210;SDS011;50528;48.514;14.394;2022-11-18T04:32:25;6.20;;;4.40;;
64210;SDS011;50528;48.514;14.394;2022-11-18T04:33:28;5.20;;;4.20;;
64210;SDS011;50528;48.514;14.394;2022-11-18T04:34:32;6.20;;;4.50;;
64210;SDS011;50528;48.514;14.394;2022-11-18T04:35:35;5.80;;;4.60;;
64210;SDS011;50528;48.514;14.394;2022-11-18T04:36:38;7.90;;;4.30;;
64210;SDS011;50528;48.514;14.394;2022-11-18T04:37:44;7.70;;;4.40;;
64210;SDS011;50528;48.514;14.394;2022-11-18T04:38:47;5.50;;;4.10;;
64210;SDS011;50528;48.514;14.394;2022-11-18T04:39:50;5.40;;;4.50;;
64210;SDS011;50528;48.514;14.394;2022-11-18T04:40:54;5.20;;;4.30;;
64210;SDS011;50528;48.514;14.394;2022-11-18T04:41:57;25.50;;;4.10;;
64210;SDS011;50528;48.514;14.394;2022-11-18T04:43:01;4.80;;;3.80;;
64210;SDS011;50528;48.514;14.394;2022-11-18T04:44:04;6.20;;;4.10;;
64210;SDS011;50528;48.514;14.394;2022-11-18T04:45:15;6.30;;;3.90;;
64210;SDS011;50528;48.514;14.394;2022-11-18T04:46:18;5.10;;;3.90;;
64210;SDS011;50528;48.514;14.394;2022-11-18T04:47:22;5.50;;;4.30;;
64210;SDS011;50528;48.514;14.394;2022-11-18T04:48:25;5.00;;;4.10;;
64210;SDS011;50528;48.514;14.394;2022-11-18T04:49:29;4.70;;;3.80;;
64210;SDS011;50528;48.514;14.394;2022-11-18T04:50:33;5.00;;;4.00;;
64210;SDS011;50528;48.514;14.394;2022-11-18T04:51:36;5.20;;;4.20;;
64210;SDS011;50528;48.514;14.394;2022-11-18T04:52:39;4.60;;;3.80;;
64210;SDS011;50528;48.514;14.394;2022-11-18T04:53:43;8.50;;;3.80;;
64210;SDS011;50528;48.514;14.394;2022-11-18T04:54:46;5.10;;;3.90;;
64210;SDS011;50528;48.514;14.394;2022-11-18T04:55:50;4.90;;;3.70;;
64210;SDS011;50528;48.514;14.394;2022-11-18T04:56:53;4.90;;;4.10;;
64210;SDS011;50528;48.514;14.394;2022-11-18T04:57:58;9.10;;;3.20;;
64210;SDS011;50528;48.514;14.394;2022-11-18T04:59:01;9.30;;;3.70;;
64210;SDS011;50528;48.514;14.394;2022-11-18T05:00:07;10.30;;;3.70;;
64210;SDS011;50528;48.514;14.394;2022-11-18T05:01:11;14.30;;;4.00;;
64210;SDS011;50528;48.514;14.394;2022-11-18T05:02:14;20.10;;;3.80;;
64210;SDS011;50528;48.514;14.394;2022-11-18T05:03:17;219.20;;;6.70;;
64210;SDS011;50528;48.514;14.394;2022-11-18T05:04:22;198.90;;;6.70;;
64210;SDS011;50528;48.514;14.394;2022-11-18T05:05:29;127.10;;;5.70;;
64210;SDS011;50528;48.514;14.394;2022-11-18T05:06:32;65.60;;;5.00;;
64210;SDS011;50528;48.514;14.394;2022-11-18T05:07:38;207.30;;;6.70;;
64210;SDS011;50528;48.514;14.394;2022-11-18T05:08:41;167.30;;;6.00;;
64210;SDS011;50528;48.514;14.394;2022-11-18T05:09:47;184.10;;;6.90;;
64210;SDS011;50528;48.514;14.394;2022-11-18T05:10:50;357.00;;;9.10;;
64210;SDS011;50528;48.514;14.394;2022-11-18T05:12:14;228.30;;;6.10;;
64210;SDS011;50528;48.514;14.394;2022-11-18T05:13:36;140.00;;;5.20;;
64210;SDS011;50528;48.514;14.394;2022-11-18T05:14:40;139.80;;;6.00;;
64210;SDS011;50528;48.514;14.394;2022-11-18T05:15:52;227.80;;;6.50;;
64210;SDS011;50528;48.514;14.394;2022-11-18T05:16:56;34.70;;;5.10;;
64210;SDS011;50528;48.514;14.394;2022-11-18T05:18:00;109.00;;;5.40;;
64210;SDS011;50528;48.514;14.394;2022-11-18T05:19:04;11.70;;;4.00;;
64210;SDS011;50528;48.514;14.394;2022-11-18T05:20:08;105.60;;;6.20;;
64210;SDS011;50528;48.514;14.394;2022-11-18T05:21:13;128.30;;;5.60;;
64210;SDS011;50528;48.514;14.394;2022-11-18T05:22:16;93.00;;;6.70;;
64210;SDS011;50528;48.514;14.394;2022-11-18T05:23:20;196.60;;;7.50;;
64210;SDS011;50528;48.514;14.394;2022-11-18T05:24:23;120.60;;;6.20;;
64210;SDS011;50528;48.514;14.394;2022-11-18T05:25:27;210.20;;;7.00;;
64210;SDS011;50528;48.514;14.394;2022-11-18T05:26:31;187.50;;;7.20;;
64210;SDS011;50528;48.514;14.394;2022-11-18T05:27:34;183.00;;;7.00;;
64210;SDS011;50528;48.514;14.394;2022-11-18T05:28:38;157.10;;;6.30;;
64210;SDS011;50528;48.514;14.394;2022-11-18T05:29:41;124.10;;;5.60;;
64210;SDS011;50528;48.514;14.394;2022-11-18T05:30:45;155.70;;;5.80;;
64210;SDS011;50528;48.514;14.394;2022-11-18T05:31:49;85.20;;;5.00;;
64210;SDS011;50528;48.514;14.394;2022-11-18T05:32:53;49.70;;;5.30;;
64210;SDS011;50528;48.514;14.394;2022-11-18T05:33:56;140.70;;;5.70;;
64210;SDS011;50528;48.514;14.394;2022-11-18T05:35:00;189.30;;;7.40;;
64210;SDS011;50528;48.514;14.394;2022-11-18T05:36:13;100.80;;;5.50;;
64210;SDS011;50528;48.514;14.394;2022-11-18T05:37:18;57.00;;;4.80;;
64210;SDS011;50528;48.514;14.394;2022-11-18T05:38:23;48.00;;;4.80;;
64210;SDS011;50528;48.514;14.394;2022-11-18T05:39:26;5.60;;;4.30;;
64210;SDS011;50528;48.514;14.394;2022-11-18T05:40:31;35.40;;;4.50;;
64210;SDS011;50528;48.514;14.394;2022-11-18T05:41:35;6.70;;;4.20;;
64210;SDS011;50528;48.514;14.394;2022-11-18T05:42:57;5.80;;;4.40;;
64210;SDS011;50528;48.514;14.394;2022-11-18T05:44:15;26.60;;;4.30;;
64210;SDS011;50528;48.514;14.394;2022-11-18T05:45:19;5.00;;;4.20;;
64210;SDS011;50528;48.514;14.394;2022-11-18T05:46:22;37.60;;;4.50;;
64210;SDS011;50528;48.514;14.394;2022-11-18T05:47:26;13.50;;;4.00;;
64210;SDS011;50528;48.514;14.394;2022-11-18T05:48:30;7.30;;;4.40;;
64210;SDS011;50528;48.514;14.394;2022-11-18T05:49:34;5.10;;;4.00;;
64210;SDS011;50528;48.514;14.394;2022-11-18T05:50:38;5.70;;;4.20;;
64210;SDS011;50528;48.514;14.394;2022-11-18T05:51:42;5.80;;;3.90;;
64210;SDS011;50528;48.514;14.394;2022-11-18T05:52:45;5.60;;;4.10;;
64210;SDS011;50528;48.514;14.394;2022-11-18T05:53:49;6.70;;;4.60;;
64210;SDS011;50528;48.514;14.394;2022-11-18T05:54:54;7.40;;;5.60;;
64210;SDS011;50528;48.514;14.394;2022-11-18T05:56:06;8.30;;;6.10;;
64210;SDS011;50528;48.514;14.394;2022-11-18T05:57:21;7.70;;;5.80;;
64210;SDS011;50528;48.514;14.394;2022-11-18T05:58:25;8.30;;;6.50;;
64210;SDS011;50528;48.514;14.394;2022-11-18T05:59:28;9.40;;;7.10;;
64210;SDS011;50528;48.514;14.394;2022-11-18T06:00:32;9.10;;;6.70;;
64210;SDS011;50528;48.514;14.394;2022-11-18T06:02:52;7.50;;;5.70;;
64210;SDS011;50528;48.514;14.394;2022-11-18T06:03:58;8.30;;;6.60;;
